Time;durP1;ratioP1;P1;durP2;ratioP2;P2;SDS_P1;SDS_P2;PMS_P1;PMS_P2;Temp;Humidity;BMP_temperature;BMP_pressure;BME280_temperature;BME280_humidity;BME280_pressure;Samples;Min_cycle;Max_cycle;Signal;HPM_P1;HPM_P2
2022/09/08 00:00:47;;;;;;;20.25;16.65;;;18.80;99.90;;;;;;5001845;28;20250;-77
2022/09/08 00:03:17;;;;;;;21.38;17.48;;;18.80;99.90;;;;;;4997637;28;20207;-78
2022/09/08 00:05:59;;;;;;;20.80;15.75;;;18.80;99.90;;;;;;4999293;28;20544;-77
2022/09/08 00:08:27;;;;;;;22.48;17.38;;;18.90;99.90;;;;;;4980084;28;20253;-76
2022/09/08 00:10:57;;;;;;;18.52;15.20;;;18.90;99.90;;;;;;4999876;28;20329;-77
2022/09/08 00:13:26;;;;;;;17.02;12.85;;;18.90;99.90;;;;;;4999812;28;20203;-77
2022/09/08 00:15:54;;;;;;;22.42;16.27;;;18.90;99.90;;;;;;4997164;28;20708;-77
2022/09/08 00:18:23;;;;;;;19.85;17.20;;;19.00;99.90;;;;;;5003581;28;20203;-76
2022/09/08 00:20:50;;;;;;;21.75;16.25;;;19.00;99.90;;;;;;4995915;28;20219;-76
2022/09/08 00:23:17;;;;;;;19.80;16.98;;;19.00;99.90;;;;;;5001600;28;20207;-77
2022/09/08 00:25:45;;;;;;;21.48;14.98;;;19.10;99.90;;;;;;4999488;28;20302;-77
2022/09/08 00:28:13;;;;;;;19.83;14.63;;;19.10;99.90;;;;;;5000862;28;20203;-77
2022/09/08 00:30:40;;;;;;;22.55;15.88;;;19.10;99.90;;;;;;5002294;28;20683;-77
2022/09/08 00:33:08;;;;;;;18.70;14.73;;;19.10;99.90;;;;;;4999695;28;20214;-77
2022/09/08 00:35:35;;;;;;;20.73;15.25;;;19.10;99.90;;;;;;4997224;28;20683;-77
2022/09/08 00:38:02;;;;;;;17.88;14.70;;;19.10;99.90;;;;;;5001365;28;20314;-78
2022/09/08 00:40:29;;;;;;;18.45;14.93;;;19.20;99.90;;;;;;4997638;28;20254;-77
2022/09/08 00:43:01;;;;;;;15.80;13.80;;;19.20;99.90;;;;;;5001385;28;20794;-78
2022/09/08 00:45:34;;;;;;;16.33;14.48;;;19.20;99.90;;;;;;4984795;28;20548;-77
2022/09/08 00:48:06;;;;;;;17.45;14.43;;;19.20;99.90;;;;;;4998908;28;20222;-77
2022/09/08 00:50:33;;;;;;;17.85;15.35;;;19.20;99.90;;;;;;4995809;28;20309;-77
2022/09/08 00:53:04;;;;;;;18.65;14.73;;;19.30;99.90;;;;;;4985965;28;20294;-77
2022/09/08 00:55:36;;;;;;;18.77;14.98;;;19.30;99.90;;;;;;4998694;28;20243;-78
2022/09/08 00:58:04;;;;;;;20.40;15.23;;;19.30;99.90;;;;;;4997269;28;20208;-76
2022/09/08 01:00:34;;;;;;;20.63;15.30;;;19.20;99.90;;;;;;4982528;28;20676;-76
2022/09/08 01:03:01;;;;;;;19.95;14.90;;;19.10;99.90;;;;;;4996075;28;20664;-77
2022/09/08 01:05:42;;;;;;;17.13;15.15;;;19.00;99.90;;;;;;4988934;28;20222;-77
2022/09/08 01:14:18;;;;;;;22.17;18.38;;;18.80;99.90;;;;;;5001384;28;20198;-77
2022/09/08 01:16:48;;;;;;;22.52;16.20;;;18.80;99.90;;;;;;4976546;28;20619;-77
2022/09/08 01:19:30;;;;;;;18.58;15.43;;;18.80;99.90;;;;;;4997628;28;20192;-77
2022/09/08 01:22:26;;;;;;;18.15;15.15;;;18.80;99.90;;;;;;4999736;28;20269;-77
2022/09/08 01:25:14;;;;;;;18.58;15.50;;;18.80;99.90;;;;;;4999278;28;20206;-77
2022/09/08 01:27:43;;;;;;;19.73;17.02;;;18.80;99.90;;;;;;4996122;28;20206;-77
2022/09/08 01:30:10;;;;;;;18.17;14.40;;;18.90;99.90;;;;;;4998840;28;20692;-76
2022/09/08 01:32:42;;;;;;;19.52;15.18;;;18.90;99.90;;;;;;5000317;28;20256;-77
2022/09/08 01:35:09;;;;;;;19.10;15.25;;;18.90;99.90;;;;;;4998558;28;20215;-75
2022/09/08 01:37:36;;;;;;;16.05;13.63;;;18.90;99.90;;;;;;4996124;28;20226;-77
2022/09/08 01:40:04;;;;;;;18.15;13.80;;;18.90;99.90;;;;;;5000044;28;20210;-77
2022/09/08 01:42:31;;;;;;;18.02;12.20;;;18.90;99.90;;;;;;4997322;28;20273;-77
2022/09/08 01:44:58;;;;;;;14.18;11.98;;;19.00;99.90;;;;;;5000163;28;20342;-77
2022/09/08 01:47:25;;;;;;;14.55;11.30;;;19.00;99.90;;;;;;4998361;28;20229;-78
2022/09/08 01:49:53;;;;;;;15.65;11.02;;;19.00;99.90;;;;;;4998349;28;20706;-77
2022/09/08 01:52:19;;;;;;;14.55;9.55;;;19.10;99.90;;;;;;4993653;28;20835;-76
2022/09/08 01:54:46;;;;;;;17.40;8.63;;;19.00;99.90;;;;;;4982174;28;20211;-78
2022/09/08 01:57:13;;;;;;;13.35;7.60;;;18.90;99.90;;;;;;4998657;28;20215;-74
2022/09/08 01:59:40;;;;;;;11.43;5.80;;;18.80;99.90;;;;;;4982021;28;20269;-76
2022/09/08 02:02:07;;;;;;;14.45;6.32;;;18.70;99.90;;;;;;4997619;28;20667;-76
2022/09/08 02:04:34;;;;;;;9.40;5.30;;;18.60;99.90;;;;;;4996394;28;20266;-74
2022/09/08 02:07:01;;;;;;;10.80;6.13;;;18.50;99.90;;;;;;4995447;28;20230;-74
2022/09/08 02:09:27;;;;;;;9.55;5.60;;;18.40;99.90;;;;;;4991560;28;20565;-73
2022/09/08 02:11:54;;;;;;;11.13;5.40;;;18.30;99.90;;;;;;4997562;28;20230;-73
2022/09/08 02:14:21;;;;;;;11.48;6.03;;;18.20;99.90;;;;;;4977882;28;20205;-72
2022/09/08 02:16:48;;;;;;;8.68;4.60;;;18.20;99.90;;;;;;4993006;28;20241;-74
2022/09/08 02:19:15;;;;;;;9.27;5.22;;;18.30;99.90;;;;;;4996161;28;20199;-73
2022/09/08 02:21:41;;;;;;;7.68;5.13;;;18.30;99.90;;;;;;4995791;28;20683;-75
2022/09/08 02:24:08;;;;;;;8.70;5.45;;;18.30;99.90;;;;;;4992060;28;20207;-73
2022/09/08 02:26:37;;;;;;;8.50;5.20;;;18.30;99.90;;;;;;4979582;28;20215;-74
2022/09/08 02:29:08;;;;;;;8.80;4.40;;;18.20;99.90;;;;;;4990256;28;20294;-74
2022/09/08 02:31:35;;;;;;;9.00;4.30;;;18.20;99.90;;;;;;4995080;28;20706;-72
2022/09/08 02:34:03;;;;;;;7.82;5.45;;;18.20;99.90;;;;;;4980809;28;20211;-74
2022/09/08 02:36:32;;;;;;;7.78;4.53;;;18.20;99.90;;;;;;4997126;28;20281;-73
2022/09/08 02:38:58;;;;;;;8.15;4.63;;;18.20;99.90;;;;;;4976415;28;20207;-75
2022/09/08 02:41:27;;;;;;;9.45;4.60;;;18.00;99.90;;;;;;4996923;28;20194;-74
2022/09/08 02:43:54;;;;;;;18.48;6.70;;;18.00;99.90;;;;;;4993816;28;20238;-74
2022/09/08 02:46:21;;;;;;;15.82;6.40;;;17.90;99.90;;;;;;4994225;28;20608;-71
2022/09/08 02:48:48;;;;;;;12.90;6.43;;;17.80;99.90;;;;;;4992397;28;20260;-73
2022/09/08 02:51:18;;;;;;;11.20;5.10;;;17.60;99.90;;;;;;4994519;28;20285;-73
2022/09/08 02:53:45;;;;;;;15.43;5.30;;;17.60;99.90;;;;;;4980740;28;20301;-73
2022/09/08 02:56:12;;;;;;;9.27;4.67;;;17.50;99.90;;;;;;4988963;28;20211;-74
2022/09/08 02:58:39;;;;;;;8.73;4.80;;;17.60;99.90;;;;;;4993311;28;20215;-74
2022/09/08 03:01:06;;;;;;;11.45;4.18;;;17.60;99.90;;;;;;4997472;28;20242;-74
2022/09/08 03:03:33;;;;;;;9.17;4.20;;;17.60;99.90;;;;;;4993312;28;20632;-73
2022/09/08 03:06:02;;;;;;;8.05;4.13;;;17.60;99.90;;;;;;4995181;28;21986;-73
2022/09/08 03:08:30;;;;;;;8.73;4.47;;;17.60;99.90;;;;;;4994135;28;20617;-74
2022/09/08 03:10:57;;;;;;;9.70;4.55;;;17.70;99.90;;;;;;4994305;28;20322;-73
2022/09/08 03:13:24;;;;;;;10.65;4.18;;;17.70;99.90;;;;;;4982358;28;20310;-75
2022/09/08 03:15:51;;;;;;;9.73;4.55;;;17.70;99.90;;;;;;4976021;28;20693;-73
2022/09/08 03:18:18;;;;;;;11.45;4.22;;;17.70;99.90;;;;;;4994816;28;20204;-73
2022/09/08 03:20:45;;;;;;;8.10;3.77;;;17.70;99.90;;;;;;4994940;28;20207;-74
2022/09/08 03:23:19;;;;;;;7.90;3.83;;;17.70;99.90;;;;;;4999000;28;20234;-73
2022/09/08 03:25:49;;;;;;;6.40;3.83;;;17.70;99.90;;;;;;4980840;28;20309;-74
2022/09/08 03:28:22;;;;;;;6.10;4.30;;;17.70;99.90;;;;;;4998645;28;20671;-72
2022/09/08 03:30:50;;;;;;;8.13;4.50;;;17.70;99.90;;;;;;4997899;28;20238;-73
2022/09/08 03:33:17;;;;;;;11.40;4.63;;;17.70;99.90;;;;;;5001031;28;20254;-73
2022/09/08 03:35:46;;;;;;;12.35;5.30;;;17.70;99.90;;;;;;4995502;28;20215;-74
2022/09/08 03:38:15;;;;;;;9.45;5.43;;;17.70;99.90;;;;;;4998501;28;20230;-74
2022/09/08 03:40:42;;;;;;;10.60;5.32;;;17.70;99.90;;;;;;4995380;28;20330;-73
2022/09/08 03:43:10;;;;;;;10.27;5.07;;;17.70;99.90;;;;;;4999286;28;20289;-73
2022/09/08 03:45:43;;;;;;;11.77;5.80;;;17.70;99.90;;;;;;4980241;28;20219;-74
2022/09/08 03:48:11;;;;;;;5.90;4.63;;;17.60;99.90;;;;;;4996328;28;20298;-74
2022/09/08 03:50:39;;;;;;;8.83;5.47;;;17.70;99.90;;;;;;4998571;28;20226;-73
2022/09/08 03:53:06;;;;;;;8.13;4.70;;;17.70;99.90;;;;;;4980213;28;20250;-74
2022/09/08 03:55:33;;;;;;;8.20;4.90;;;17.70;99.90;;;;;;5005903;28;20211;-73
2022/09/08 03:58:01;;;;;;;11.37;6.00;;;17.70;99.90;;;;;;4998938;28;20281;-73
2022/09/08 04:00:27;;;;;;;7.47;5.13;;;17.60;99.90;;;;;;5000192;28;20257;-74
2022/09/08 04:02:55;;;;;;;9.98;5.68;;;17.60;99.90;;;;;;4996941;28;20798;-74
2022/09/08 04:05:21;;;;;;;10.45;5.82;;;17.60;99.90;;;;;;4999425;28;20620;-74
2022/09/08 04:07:48;;;;;;;11.77;6.05;;;17.60;99.90;;;;;;4997393;28;20241;-72
2022/09/08 04:10:16;;;;;;;11.73;6.10;;;17.60;99.90;;;;;;4983178;28;20239;-74
2022/09/08 04:12:44;;;;;;;9.95;5.82;;;17.60;99.90;;;;;;5000234;28;20208;-73
2022/09/08 04:15:11;;;;;;;8.00;6.13;;;17.50;99.90;;;;;;4997263;28;20726;-74
2022/09/08 04:17:39;;;;;;;12.13;6.60;;;17.50;99.90;;;;;;4996735;28;20315;-74
2022/09/08 04:20:06;;;;;;;13.70;6.90;;;17.60;99.90;;;;;;4998036;28;20229;-74
2022/09/08 04:22:33;;;;;;;10.27;6.97;;;17.50;99.90;;;;;;4981673;28;20306;-74
2022/09/08 04:25:01;;;;;;;9.83;6.47;;;17.60;99.90;;;;;;4997980;28;20258;-73
2022/09/08 04:27:28;;;;;;;12.10;6.67;;;17.60;99.90;;;;;;4997996;28;20335;-73
2022/09/08 04:29:54;;;;;;;13.50;7.30;;;17.60;99.90;;;;;;4998473;28;20321;-73
2022/09/08 04:32:21;;;;;;;9.63;6.83;;;17.60;99.90;;;;;;4995289;28;20259;-73
2022/09/08 04:34:51;;;;;;;10.63;6.83;;;17.60;99.90;;;;;;4995923;28;20242;-73
2022/09/08 04:37:19;;;;;;;11.60;7.27;;;17.50;99.90;;;;;;4995261;28;20227;-73
2022/09/08 04:39:48;;;;;;;11.33;7.37;;;17.50;99.90;;;;;;4997359;28;20218;-73
2022/09/08 04:42:16;;;;;;;14.07;7.17;;;17.50;99.90;;;;;;4994628;28;20203;-74
2022/09/08 04:44:42;;;;;;;13.60;7.70;;;17.50;99.90;;;;;;4996117;28;20261;-74
2022/09/08 04:47:09;;;;;;;12.83;7.00;;;17.50;99.90;;;;;;4995840;28;20241;-73
2022/09/08 04:49:36;;;;;;;15.57;8.03;;;17.50;99.90;;;;;;4993954;28;20199;-74
2022/09/08 04:52:03;;;;;;;13.73;8.13;;;17.50;99.90;;;;;;4999512;28;20270;-74
2022/09/08 04:54:30;;;;;;;12.47;7.77;;;17.50;99.90;;;;;;4997570;28;20691;-72
2022/09/08 04:56:56;;;;;;;13.57;7.33;;;17.40;99.90;;;;;;4995188;28;20519;-72
2022/09/08 04:59:25;;;;;;;14.93;7.70;;;17.50;99.90;;;;;;4996602;28;20226;-73
2022/09/08 05:01:52;;;;;;;18.13;6.97;;;17.50;99.90;;;;;;4978524;28;20234;-73
2022/09/08 05:04:19;;;;;;;13.23;7.60;;;17.50;99.90;;;;;;4996005;28;20202;-72
2022/09/08 05:06:45;;;;;;;13.07;7.20;;;17.60;99.90;;;;;;4999935;28;21488;-72
2022/09/08 05:09:13;;;;;;;13.93;8.27;;;17.60;99.90;;;;;;5003723;28;20202;-72
2022/09/08 05:11:40;;;;;;;12.77;7.67;;;17.60;99.90;;;;;;4982772;28;20230;-73
2022/09/08 05:14:07;;;;;;;14.70;7.35;;;17.60;99.90;;;;;;5001366;28;20207;-72
2022/09/08 05:16:34;;;;;;;13.73;7.63;;;17.60;99.90;;;;;;4994808;28;20219;-73
2022/09/08 05:19:04;;;;;;;13.50;6.82;;;17.60;99.90;;;;;;4999093;28;20648;-72
2022/09/08 05:21:33;;;;;;;14.02;6.82;;;17.60;99.90;;;;;;4998733;28;20224;-71
2022/09/08 05:24:00;;;;;;;14.17;7.13;;;17.60;99.90;;;;;;5005851;28;20201;-73
2022/09/08 05:26:28;;;;;;;16.33;7.68;;;17.60;99.90;;;;;;4999103;28;20202;-73
2022/09/08 05:28:55;;;;;;;15.73;6.78;;;17.60;99.90;;;;;;4983034;28;20249;-73
2022/09/08 05:31:25;;;;;;;12.67;6.90;;;17.50;99.90;;;;;;4992602;28;20223;-74
2022/09/08 05:33:54;;;;;;;11.03;6.20;;;17.50;99.90;;;;;;5001572;28;20699;-73
2022/09/08 05:36:23;;;;;;;12.27;5.53;;;17.50;99.90;;;;;;4994754;28;20705;-73
2022/09/08 05:38:51;;;;;;;10.45;5.78;;;17.50;99.90;;;;;;4996207;28;20297;-72
2022/09/08 05:41:18;;;;;;;11.90;5.78;;;17.50;99.90;;;;;;4978270;28;20199;-73
2022/09/08 05:43:45;;;;;;;9.60;5.90;;;17.50;99.90;;;;;;4996882;28;20571;-73
2022/09/08 05:46:12;;;;;;;12.27;6.80;;;17.40;99.90;;;;;;5002183;28;20242;-70
2022/09/08 05:48:44;;;;;;;10.77;6.50;;;17.40;99.90;;;;;;4996301;28;20211;-72
2022/09/08 05:51:17;;;;;;;14.10;7.50;;;17.40;99.90;;;;;;4996901;28;20320;-72
2022/09/08 05:53:44;;;;;;;12.37;7.63;;;17.40;99.90;;;;;;4995153;28;20237;-72
2022/09/08 05:56:12;;;;;;;15.07;8.97;;;17.40;99.90;;;;;;5000471;28;20637;-72
2022/09/08 05:58:39;;;;;;;17.70;9.57;;;17.10;99.90;;;;;;4971708;28;20210;-73
2022/09/08 06:01:10;;;;;;;19.00;10.70;;;17.30;99.90;;;;;;5004617;28;20783;-73
2022/09/08 06:03:37;;;;;;;20.53;11.03;;;17.40;99.90;;;;;;5000128;28;20664;-73
2022/09/08 06:06:07;;;;;;;17.85;10.20;;;17.20;99.90;;;;;;5001160;28;20269;-71
2022/09/08 06:08:35;;;;;;;21.50;11.03;;;17.20;99.90;;;;;;5002331;28;20229;-72
2022/09/08 06:11:03;;;;;;;19.17;11.70;;;17.30;99.90;;;;;;5000607;28;20312;-72
2022/09/08 06:13:31;;;;;;;18.67;11.10;;;17.30;99.90;;;;;;4993918;28;20265;-72
2022/09/08 06:16:07;;;;;;;18.50;10.52;;;17.30;99.90;;;;;;4985176;28;20214;-72
2022/09/08 06:18:36;;;;;;;21.83;12.53;;;17.30;99.90;;;;;;4991328;28;20644;-72
2022/09/08 06:21:24;;;;;;;16.47;10.43;;;17.30;99.90;;;;;;4998819;28;20261;-73
2022/09/08 06:23:54;;;;;;;18.00;10.30;;;17.30;99.90;;;;;;4999376;28;20297;-72
2022/09/08 06:26:49;;;;;;;15.98;10.18;;;17.30;99.90;;;;;;5002145;28;20222;-72
2022/09/08 06:29:25;;;;;;;16.90;10.33;;;17.30;99.90;;;;;;4997253;28;20210;-72
2022/09/08 06:32:18;;;;;;;16.57;11.33;;;17.30;99.90;;;;;;4994944;28;20296;-71
2022/09/08 06:34:50;;;;;;;17.23;11.10;;;17.20;99.90;;;;;;4995764;28;20309;-72
2022/09/08 06:37:47;;;;;;;16.30;11.00;;;17.20;99.90;;;;;;4995196;28;20299;-72
2022/09/08 06:40:20;;;;;;;15.17;10.80;;;17.20;99.90;;;;;;4992546;28;21085;-72
2022/09/08 06:42:56;;;;;;;15.13;10.67;;;17.20;99.90;;;;;;4983055;28;20235;-73
2022/09/08 06:45:26;;;;;;;17.63;12.10;;;17.20;99.90;;;;;;4983893;28;20281;-72
2022/09/08 06:48:11;;;;;;;17.50;11.63;;;17.30;99.90;;;;;;4994049;28;20606;-72
2022/09/08 06:51:01;;;;;;;20.17;11.87;;;17.20;99.90;;;;;;4991647;28;20265;-71
2022/09/08 06:53:39;;;;;;;22.20;12.43;;;17.30;99.90;;;;;;4962883;28;20211;-70
2022/09/08 06:56:30;;;;;;;18.33;11.47;;;17.30;99.90;;;;;;4994183;28;20242;-71
2022/09/08 06:59:22;;;;;;;15.70;10.13;;;17.40;99.90;;;;;;4996269;28;20207;-71
2022/09/08 07:02:01;;;;;;;16.47;10.97;;;17.40;99.90;;;;;;4994513;28;20432;-70
2022/09/08 07:04:39;;;;;;;17.73;10.80;;;17.40;99.90;;;;;;4995324;28;20298;-73
2022/09/08 07:07:16;;;;;;;15.87;10.67;;;17.40;99.90;;;;;;4995003;28;20309;-70
2022/09/08 07:09:53;;;;;;;19.67;11.43;;;17.50;99.90;;;;;;4998228;28;20198;-71
2022/09/08 07:12:39;;;;;;;18.90;11.48;;;17.50;99.90;;;;;;4998444;28;20226;-71
2022/09/08 07:15:24;;;;;;;14.68;11.00;;;17.60;99.90;;;;;;4997329;28;20294;-70
2022/09/08 07:18:03;;;;;;;17.25;11.27;;;17.50;99.90;;;;;;4993335;28;20268;-70
2022/09/08 07:20:31;;;;;;;20.60;13.15;;;17.50;99.90;;;;;;4997428;28;20298;-71
2022/09/08 07:23:07;;;;;;;18.75;12.75;;;17.50;99.90;;;;;;4988498;28;20291;-71
2022/09/08 07:26:13;;;;;;;18.73;12.90;;;17.50;99.90;;;;;;4993339;28;20294;-70
2022/09/08 07:28:45;;;;;;;25.13;13.98;;;17.50;99.90;;;;;;4979714;28;20401;-70
2022/09/08 07:31:24;;;;;;;24.90;14.25;;;17.50;99.90;;;;;;4995915;28;20298;-71
2022/09/08 07:34:15;;;;;;;20.90;12.95;;;17.50;99.90;;;;;;4994426;28;20200;-73
2022/09/08 07:37:01;;;;;;;23.50;14.07;;;17.50;99.90;;;;;;4978026;28;20249;-72
2022/09/08 07:39:34;;;;;;;25.90;14.38;;;17.50;99.90;;;;;;4983683;28;20216;-72
2022/09/08 07:42:03;;;;;;;27.88;16.27;;;17.60;99.90;;;;;;4997428;28;20276;-70
2022/09/08 07:44:34;;;;;;;22.15;14.70;;;17.60;99.90;;;;;;4996784;28;20321;-71
2022/09/08 07:47:24;;;;;;;25.15;14.90;;;17.60;99.90;;;;;;4995975;28;20211;-72
2022/09/08 07:50:09;;;;;;;25.10;14.00;;;17.60;99.90;;;;;;4994060;28;20735;-72
2022/09/08 07:53:04;;;;;;;21.98;14.07;;;17.60;99.90;;;;;;4995399;28;20340;-72
2022/09/08 07:55:39;;;;;;;21.80;13.90;;;17.60;99.90;;;;;;4996134;28;20361;-72
2022/09/08 07:58:16;;;;;;;22.52;13.93;;;17.60;99.90;;;;;;4993455;28;20666;-72
2022/09/08 08:00:56;;;;;;;23.00;15.07;;;17.60;99.90;;;;;;4981022;28;20207;-72
2022/09/08 08:03:59;;;;;;;24.17;15.02;;;17.60;99.90;;;;;;4994270;28;20289;-72
2022/09/08 08:06:40;;;;;;;27.58;15.98;;;17.60;99.90;;;;;;4993430;28;20637;-72
2022/09/08 08:09:10;;;;;;;21.08;14.30;;;17.60;99.90;;;;;;4997862;28;20601;-71
2022/09/08 08:12:10;;;;;;;23.67;15.18;;;17.50;99.90;;;;;;4987770;28;20254;-72
2022/09/08 08:14:58;;;;;;;27.70;15.68;;;17.60;99.90;;;;;;4982313;28;20269;-71
2022/09/08 08:17:48;;;;;;;20.83;11.90;;;17.60;99.90;;;;;;4998937;28;20690;-73
2022/09/08 08:20:30;;;;;;;20.88;13.65;;;17.50;99.90;;;;;;4996691;28;20825;-73
2022/09/08 08:23:21;;;;;;;18.63;12.63;;;17.50;99.90;;;;;;4992601;28;20230;-71
2022/09/08 08:26:01;;;;;;;18.08;11.20;;;17.50;99.90;;;;;;4996848;28;20211;-73
2022/09/08 08:28:34;;;;;;;13.95;9.68;;;17.50;99.90;;;;;;4985918;28;20643;-74
2022/09/08 08:31:04;;;;;;;13.35;9.48;;;17.50;99.90;;;;;;4996785;28;20214;-71
2022/09/08 08:33:36;;;;;;;11.55;6.35;;;17.60;99.90;;;;;;4995989;28;20223;-72
2022/09/08 08:36:12;;;;;;;8.15;5.43;;;17.60;99.90;;;;;;4985802;28;20249;-71
2022/09/08 08:38:41;;;;;;;8.00;5.35;;;17.60;99.90;;;;;;4995701;28;20261;-71
2022/09/08 08:41:29;;;;;;;5.10;4.45;;;17.60;99.90;;;;;;5000363;28;20278;-72
2022/09/08 08:44:28;;;;;;;7.57;5.20;;;17.60;99.90;;;;;;5000837;28;20217;-72
2022/09/08 08:47:14;;;;;;;8.10;4.60;;;17.60;99.90;;;;;;4992803;28;20214;-72
2022/09/08 08:50:16;;;;;;;5.28;4.72;;;17.70;99.90;;;;;;5000705;28;20293;-72
2022/09/08 08:52:48;;;;;;;9.27;5.10;;;17.70;99.90;;;;;;4996199;28;20244;-72
2022/09/08 08:55:36;;;;;;;8.63;6.47;;;17.80;99.90;;;;;;4997237;28;20459;-72
2022/09/08 08:58:37;;;;;;;8.23;6.70;;;17.90;99.90;;;;;;4996700;28;20605;-72
2022/09/08 09:01:15;;;;;;;11.02;8.48;;;17.90;99.90;;;;;;4999905;28;20326;-73
2022/09/08 09:03:58;;;;;;;16.30;9.98;;;18.00;99.90;;;;;;4996494;28;20603;-72
2022/09/08 09:06:44;;;;;;;16.90;10.75;;;18.10;99.90;;;;;;4989122;28;20232;-72
2022/09/08 09:09:35;;;;;;;15.13;10.68;;;18.20;99.90;;;;;;4998706;28;20191;-73
2022/09/08 09:12:21;;;;;;;16.23;9.93;;;18.30;99.90;;;;;;4996743;28;20754;-73
2022/09/08 09:15:13;;;;;;;14.77;10.07;;;18.30;99.90;;;;;;4996379;28;20218;-73
2022/09/08 09:18:07;;;;;;;12.68;9.75;;;18.30;99.90;;;;;;4995828;28;20211;-73
2022/09/08 09:21:00;;;;;;;11.57;9.55;;;18.40;99.90;;;;;;4996549;28;20217;-73
2022/09/08 09:24:07;;;;;;;13.15;9.60;;;18.40;99.90;;;;;;4996812;28;20293;-73
2022/09/08 09:26:35;;;;;;;13.70;9.23;;;18.50;99.90;;;;;;4985599;28;20826;-73
2022/09/08 09:29:14;;;;;;;10.65;7.70;;;18.40;99.90;;;;;;4996897;28;20199;-73
2022/09/08 09:32:04;;;;;;;9.93;8.73;;;18.40;99.90;;;;;;4997959;28;20214;-74
2022/09/08 09:34:53;;;;;;;13.18;9.63;;;18.40;99.90;;;;;;4996599;28;20667;-73
2022/09/08 09:37:57;;;;;;;10.65;8.68;;;18.50;99.90;;;;;;4993281;28;20257;-74
2022/09/08 09:40:48;;;;;;;12.32;8.90;;;18.70;99.90;;;;;;4999824;28;20203;-74
2022/09/08 09:44:01;;;;;;;11.82;8.73;;;18.90;99.90;;;;;;4988082;28;20520;-75
2022/09/08 09:46:59;;;;;;;13.23;8.00;;;19.10;99.90;;;;;;4995883;28;20199;-73
2022/09/08 09:49:50;;;;;;;9.05;7.00;;;19.30;99.90;;;;;;4995461;28;20222;-73
2022/09/08 09:52:34;;;;;;;9.75;7.90;;;19.40;99.90;;;;;;4993339;28;20233;-74
2022/09/08 09:55:22;;;;;;;9.27;7.43;;;19.50;99.90;;;;;;4992216;28;20199;-72
2022/09/08 09:58:07;;;;;;;9.73;6.95;;;19.70;99.90;;;;;;4999085;28;20207;-73
2022/09/08 10:01:07;;;;;;;10.23;8.15;;;19.70;99.90;;;;;;5003939;28;20207;-73
2022/09/08 10:03:57;;;;;;;11.32;7.78;;;19.80;99.90;;;;;;4997043;28;20286;-74
2022/09/08 10:06:39;;;;;;;12.73;7.40;;;19.90;99.90;;;;;;4999423;28;20223;-74
2022/09/08 10:09:57;;;;;;;10.73;7.63;;;20.10;99.90;;;;;;4997539;28;20205;-75
2022/09/08 10:12:55;;;;;;;9.57;6.95;;;20.20;99.90;;;;;;4994805;28;20236;-74
2022/09/08 10:15:48;;;;;;;7.70;6.13;;;20.20;99.90;;;;;;5000233;28;20341;-75
2022/09/08 10:18:55;;;;;;;11.15;7.15;;;20.20;99.90;;;;;;4997888;28;20308;-74
2022/09/08 10:21:50;;;;;;;10.02;5.78;;;20.20;99.90;;;;;;4984159;28;20223;-76
2022/09/08 10:24:23;;;;;;;9.02;6.07;;;20.30;99.90;;;;;;5000072;28;20207;-74
2022/09/08 10:27:01;;;;;;;9.98;5.30;;;20.50;99.90;;;;;;4994550;28;20210;-75
2022/09/08 10:29:58;;;;;;;10.40;5.82;;;20.60;99.90;;;;;;4985723;28;20213;-74
2022/09/08 10:32:32;;;;;;;8.10;5.68;;;20.60;99.90;;;;;;4990867;28;20325;-75
2022/09/08 10:35:04;;;;;;;9.27;5.35;;;20.70;99.90;;;;;;5001716;28;20202;-74
2022/09/08 10:37:43;;;;;;;7.97;5.60;;;20.70;99.90;;;;;;5004275;28;20225;-75
2022/09/08 10:40:09;;;;;;;8.05;5.03;;;21.00;99.90;;;;;;4995299;28;20246;-75
2022/09/08 10:43:18;;;;;;;9.38;5.20;;;21.00;99.90;;;;;;4981698;28;20282;-75
2022/09/08 10:45:59;;;;;;;5.65;4.68;;;21.10;99.90;;;;;;4986564;28;20202;-75
2022/09/08 10:48:40;;;;;;;9.23;5.05;;;21.20;99.90;;;;;;4996674;28;20660;-75
2022/09/08 10:51:21;;;;;;;9.23;4.72;;;21.40;99.90;;;;;;4993851;28;20223;-76
2022/09/08 10:53:59;;;;;;;6.65;4.57;;;21.70;99.90;;;;;;4998728;28;20666;-77
2022/09/08 10:56:29;;;;;;;8.30;4.32;;;21.80;99.90;;;;;;4995818;28;20313;-76
2022/09/08 10:59:34;;;;;;;5.90;3.58;;;21.80;99.90;;;;;;4990510;28;20574;-75
2022/09/08 11:02:31;;;;;;;6.43;3.42;;;21.70;99.90;;;;;;4991609;28;20746;-76
2022/09/08 11:05:05;;;;;;;5.20;3.25;;;21.40;99.90;;;;;;4994002;28;20563;-75
2022/09/08 11:07:53;;;;;;;5.68;3.20;;;21.50;99.90;;;;;;4995369;28;20257;-75
2022/09/08 11:10:47;;;;;;;4.93;2.83;;;21.50;99.90;;;;;;4998496;28;20207;-76
2022/09/08 11:13:27;;;;;;;7.00;3.20;;;21.40;99.90;;;;;;4995019;28;20694;-75
2022/09/08 11:16:02;;;;;;;6.53;3.10;;;21.20;99.90;;;;;;5001960;28;20333;-75
2022/09/08 11:18:48;;;;;;;6.13;3.28;;;21.30;99.90;;;;;;5003191;28;20262;-74
2022/09/08 11:21:25;;;;;;;4.13;2.85;;;21.40;99.90;;;;;;5004101;28;20214;-75
2022/09/08 11:23:58;;;;;;;4.32;2.45;;;21.50;99.90;;;;;;5004739;28;20768;-75
2022/09/08 11:26:30;;;;;;;5.40;3.30;;;21.70;99.90;;;;;;5000324;28;20207;-75
2022/09/08 11:29:06;;;;;;;8.43;3.60;;;21.90;99.90;;;;;;5005018;28;20198;-76
2022/09/08 11:32:02;;;;;;;5.22;2.60;;;22.00;99.90;;;;;;5004350;28;20602;-76
2022/09/08 11:34:50;;;;;;;5.00;2.80;;;22.10;99.90;;;;;;4985631;28;20537;-76
2022/09/08 11:37:20;;;;;;;5.57;2.83;;;22.20;99.90;;;;;;5003532;28;20222;-75
2022/09/08 11:40:24;;;;;;;3.85;2.70;;;22.40;99.90;;;;;;4996815;28;20231;-75
2022/09/08 11:43:10;;;;;;;4.38;2.85;;;22.40;99.90;;;;;;5000987;28;20207;-76
2022/09/08 11:45:40;;;;;;;3.50;2.40;;;22.40;99.90;;;;;;4998552;28;20663;-75
2022/09/08 11:48:34;;;;;;;6.18;3.30;;;22.50;99.90;;;;;;4998584;28;20293;-74
2022/09/08 11:51:14;;;;;;;4.63;3.40;;;22.60;99.90;;;;;;4996935;28;20582;-74
2022/09/08 11:54:31;;;;;;;4.00;3.38;;;22.50;99.90;;;;;;5002729;28;20280;-74
2022/09/08 11:57:31;;;;;;;5.65;3.65;;;22.30;99.90;;;;;;4998002;28;20226;-74
2022/09/08 12:00:09;;;;;;;5.22;3.20;;;22.40;99.90;;;;;;4999933;28;20234;-74
2022/09/08 12:02:36;;;;;;;6.95;4.45;;;22.30;99.90;;;;;;4999050;28;20243;-74
2022/09/08 12:05:31;;;;;;;6.07;3.60;;;22.40;99.90;;;;;;4984709;28;20237;-72
2022/09/08 12:08:23;;;;;;;7.65;4.15;;;22.50;99.90;;;;;;4996881;28;20313;-74
2022/09/08 12:11:19;;;;;;;6.57;4.05;;;22.60;99.90;;;;;;4995413;28;20216;-75
2022/09/08 12:14:31;;;;;;;5.78;4.00;;;22.80;99.90;;;;;;4990363;28;20234;-72
2022/09/08 12:17:10;;;;;;;5.38;4.15;;;23.00;99.90;;;;;;4983797;28;20829;-74
2022/09/08 12:19:47;;;;;;;8.45;4.13;;;23.00;99.90;;;;;;4995343;28;20218;-74
2022/09/08 12:22:23;;;;;;;9.57;3.88;;;22.90;99.90;;;;;;5008354;28;20210;-73
2022/09/08 12:24:53;;;;;;;6.03;4.00;;;22.90;99.90;;;;;;4999486;28;20652;-73
2022/09/08 12:28:18;;;;;;;4.78;3.67;;;23.00;99.90;;;;;;5000423;28;20273;-73
2022/09/08 12:31:08;;;;;;;5.43;3.78;;;23.00;99.90;;;;;;4995932;28;20214;-74
2022/09/08 12:34:05;;;;;;;9.95;4.13;;;22.90;99.90;;;;;;5001986;28;20765;-74
2022/09/08 12:36:37;;;;;;;8.88;4.63;;;22.90;99.90;;;;;;4988587;28;20601;-74
2022/09/08 12:39:15;;;;;;;5.88;4.07;;;22.80;99.90;;;;;;5000314;28;20210;-74
2022/09/08 12:42:02;;;;;;;6.22;4.47;;;22.80;99.90;;;;;;5005825;28;20333;-74
2022/09/08 12:44:48;;;;;;;5.38;3.60;;;22.80;99.90;;;;;;4967134;28;20521;-75
2022/09/08 12:47:34;;;;;;;6.05;3.47;;;22.90;99.90;;;;;;5000990;28;20302;-73
2022/09/08 12:50:20;;;;;;;8.00;3.90;;;23.00;99.90;;;;;;4996758;28;20459;-74
2022/09/08 12:52:53;;;;;;;5.85;4.07;;;23.10;99.90;;;;;;4998669;28;20222;-74
2022/09/08 12:55:33;;;;;;;6.55;4.53;;;23.10;99.90;;;;;;4994626;28;20680;-74
2022/09/08 12:58:07;;;;;;;7.18;4.43;;;23.10;99.90;;;;;;4987300;28;20226;-74
2022/09/08 13:01:09;;;;;;;6.75;5.05;;;23.20;99.90;;;;;;4977501;28;20221;-74
2022/09/08 13:03:41;;;;;;;5.28;3.88;;;23.00;99.90;;;;;;4980231;28;20240;-75
2022/09/08 13:06:16;;;;;;;6.60;4.20;;;23.20;99.90;;;;;;4997055;28;20555;-74
2022/09/08 13:08:58;;;;;;;7.45;4.05;;;23.30;99.90;;;;;;4992514;28;20237;-74
2022/09/08 13:11:49;;;;;;;6.75;4.38;;;23.40;99.90;;;;;;4998751;28;20212;-74
2022/09/08 13:14:32;;;;;;;9.90;4.63;;;23.40;99.90;;;;;;4999688;28;20234;-74
2022/09/08 13:17:18;;;;;;;7.28;5.03;;;23.40;99.90;;;;;;4995603;28;20297;-76
2022/09/08 13:20:25;;;;;;;7.18;4.45;;;23.60;99.90;;;;;;4992053;28;20754;-74
2022/09/08 13:23:04;;;;;;;8.45;5.85;;;23.80;99.90;;;;;;4997683;28;20293;-75
2022/09/08 13:25:54;;;;;;;5.70;5.00;;;23.70;99.90;;;;;;4995653;28;20686;-74
2022/09/08 13:28:35;;;;;;;6.32;4.93;;;23.80;99.90;;;;;;4992508;28;20207;-75
2022/09/08 13:31:22;;;;;;;7.43;4.22;;;23.80;99.90;;;;;;4994466;28;20218;-74
2022/09/08 13:33:53;;;;;;;6.80;4.07;;;24.00;99.90;;;;;;4996223;28;20235;-75